sensor_id;sensor_type;location;lat;lon;timestamp;P1;durP1;ratioP1;P2;durP2;ratioP2
2213;SDS011;1113;42.018;23.986;2023-12-14T00:02:03;60.05;;;35.78;;
2213;SDS011;1113;42.018;23.986;2023-12-14T00:04:30;52.43;;;33.17;;
2213;SDS011;1113;42.018;23.986;2023-12-14T00:06:58;52.83;;;33.45;;
2213;SDS011;1113;42.018;23.986;2023-12-14T00:09:25;47.50;;;30.63;;
2213;SDS011;1113;42.018;23.986;2023-12-14T00:11:53;49.47;;;31.20;;
2213;SDS011;1113;42.018;23.986;2023-12-14T00:14:21;46.65;;;31.67;;
2213;SDS011;1113;42.018;23.986;2023-12-14T00:16:49;45.20;;;29.95;;
2213;SDS011;1113;42.018;23.986;2023-12-14T00:19:16;41.03;;;28.60;;
2213;SDS011;1113;42.018;23.986;2023-12-14T00:21:43;43.15;;;29.42;;
2213;SDS011;1113;42.018;23.986;2023-12-14T00:24:10;50.40;;;31.75;;
2213;SDS011;1113;42.018;23.986;2023-12-14T00:26:38;49.40;;;31.80;;
2213;SDS011;1113;42.018;23.986;2023-12-14T00:29:05;43.35;;;27.80;;
2213;SDS011;1113;42.018;23.986;2023-12-14T00:31:34;40.33;;;27.25;;
2213;SDS011;1113;42.018;23.986;2023-12-14T00:34:02;45.20;;;27.83;;
2213;SDS011;1113;42.018;23.986;2023-12-14T00:36:29;43.15;;;26.08;;
2213;SDS011;1113;42.018;23.986;2023-12-14T00:38:56;32.97;;;23.38;;
2213;SDS011;1113;42.018;23.986;2023-12-14T00:41:24;28.33;;;18.35;;
2213;SDS011;1113;42.018;23.986;2023-12-14T00:43:51;29.48;;;19.95;;
2213;SDS011;1113;42.018;23.986;2023-12-14T00:46:18;29.70;;;18.80;;
2213;SDS011;1113;42.018;23.986;2023-12-14T00:48:47;23.67;;;17.02;;
2213;SDS011;1113;42.018;23.986;2023-12-14T00:51:14;24.00;;;17.27;;
2213;SDS011;1113;42.018;23.986;2023-12-14T00:53:42;26.45;;;17.35;;
2213;SDS011;1113;42.018;23.986;2023-12-14T00:56:09;23.27;;;17.27;;
2213;SDS011;1113;42.018;23.986;2023-12-14T00:58:36;25.08;;;16.60;;
2213;SDS011;1113;42.018;23.986;2023-12-14T01:01:04;27.98;;;19.08;;
2213;SDS011;1113;42.018;23.986;2023-12-14T01:03:32;29.77;;;20.50;;
2213;SDS011;1113;42.018;23.986;2023-12-14T01:06:00;26.50;;;18.80;;
2213;SDS011;1113;42.018;23.986;2023-12-14T01:08:27;23.02;;;17.85;;
2213;SDS011;1113;42.018;23.986;2023-12-14T01:10:55;24.95;;;18.08;;
2213;SDS011;1113;42.018;23.986;2023-12-14T01:13:22;26.10;;;17.15;;
2213;SDS011;1113;42.018;23.986;2023-12-14T01:15:50;28.30;;;17.65;;
2213;SDS011;1113;42.018;23.986;2023-12-14T01:18:17;28.65;;;19.63;;
2213;SDS011;1113;42.018;23.986;2023-12-14T01:20:44;30.98;;;19.77;;
2213;SDS011;1113;42.018;23.986;2023-12-14T01:23:13;34.40;;;20.60;;
2213;SDS011;1113;42.018;23.986;2023-12-14T01:25:41;34.72;;;20.77;;
2213;SDS011;1113;42.018;23.986;2023-12-14T01:28:08;41.15;;;24.30;;
2213;SDS011;1113;42.018;23.986;2023-12-14T01:30:35;39.17;;;23.52;;
2213;SDS011;1113;42.018;23.986;2023-12-14T01:33:03;44.47;;;22.70;;
2213;SDS011;1113;42.018;23.986;2023-12-14T01:35:30;34.15;;;21.10;;
2213;SDS011;1113;42.018;23.986;2023-12-14T01:37:57;28.65;;;17.92;;
2213;SDS011;1113;42.018;23.986;2023-12-14T01:40:26;31.63;;;17.27;;
2213;SDS011;1113;42.018;23.986;2023-12-14T01:42:53;24.35;;;14.23;;
2213;SDS011;1113;42.018;23.986;2023-12-14T01:45:32;22.58;;;14.20;;
2213;SDS011;1113;42.018;23.986;2023-12-14T01:47:59;18.95;;;12.60;;
2213;SDS011;1113;42.018;23.986;2023-12-14T01:50:26;20.50;;;12.90;;
2213;SDS011;1113;42.018;23.986;2023-12-14T01:52:54;20.67;;;13.50;;
2213;SDS011;1113;42.018;23.986;2023-12-14T01:55:21;22.58;;;12.38;;
2213;SDS011;1113;42.018;23.986;2023-12-14T01:57:50;16.17;;;11.65;;
2213;SDS011;1113;42.018;23.986;2023-12-14T02:00:19;21.95;;;11.70;;
2213;SDS011;1113;42.018;23.986;2023-12-14T02:02:53;20.38;;;12.43;;
2213;SDS011;1113;42.018;23.986;2023-12-14T02:05:20;33.20;;;21.25;;
2213;SDS011;1113;42.018;23.986;2023-12-14T02:07:48;22.88;;;16.92;;
2213;SDS011;1113;42.018;23.986;2023-12-14T02:10:16;18.42;;;13.48;;
2213;SDS011;1113;42.018;23.986;2023-12-14T02:12:43;22.95;;;15.88;;
2213;SDS011;1113;42.018;23.986;2023-12-14T02:15:12;23.73;;;12.93;;
2213;SDS011;1113;42.018;23.986;2023-12-14T02:17:39;42.17;;;27.42;;
2213;SDS011;1113;42.018;23.986;2023-12-14T02:20:07;25.50;;;17.48;;
2213;SDS011;1113;42.018;23.986;2023-12-14T02:22:47;43.05;;;26.15;;
2213;SDS011;1113;42.018;23.986;2023-12-14T02:25:16;49.75;;;26.08;;
2213;SDS011;1113;42.018;23.986;2023-12-14T02:27:43;39.67;;;23.40;;
2213;SDS011;1113;42.018;23.986;2023-12-14T02:30:11;51.15;;;28.08;;
2213;SDS011;1113;42.018;23.986;2023-12-14T02:32:39;32.50;;;19.05;;
2213;SDS011;1113;42.018;23.986;2023-12-14T02:35:07;31.65;;;17.75;;
2213;SDS011;1113;42.018;23.986;2023-12-14T02:37:36;33.42;;;17.58;;
2213;SDS011;1113;42.018;23.986;2023-12-14T02:40:06;29.55;;;19.60;;
2213;SDS011;1113;42.018;23.986;2023-12-14T02:42:34;26.52;;;17.40;;
2213;SDS011;1113;42.018;23.986;2023-12-14T02:45:02;20.65;;;13.70;;
2213;SDS011;1113;42.018;23.986;2023-12-14T02:47:30;14.95;;;11.00;;
2213;SDS011;1113;42.018;23.986;2023-12-14T02:49:58;23.17;;;16.58;;
2213;SDS011;1113;42.018;23.986;2023-12-14T02:52:25;21.52;;;13.85;;
2213;SDS011;1113;42.018;23.986;2023-12-14T02:54:54;20.05;;;12.30;;
2213;SDS011;1113;42.018;23.986;2023-12-14T02:57:21;20.90;;;12.07;;
2213;SDS011;1113;42.018;23.986;2023-12-14T02:59:48;20.63;;;11.60;;
2213;SDS011;1113;42.018;23.986;2023-12-14T03:02:15;22.27;;;11.77;;
2213;SDS011;1113;42.018;23.986;2023-12-14T03:04:43;16.52;;;11.15;;
2213;SDS011;1113;42.018;23.986;2023-12-14T03:07:11;14.65;;;10.07;;
2213;SDS011;1113;42.018;23.986;2023-12-14T03:09:39;12.25;;;9.23;;
2213;SDS011;1113;42.018;23.986;2023-12-14T03:12:11;11.13;;;7.03;;
2213;SDS011;1113;42.018;23.986;2023-12-14T03:14:38;13.95;;;7.30;;
2213;SDS011;1113;42.018;23.986;2023-12-14T03:17:06;8.23;;;6.70;;
2213;SDS011;1113;42.018;23.986;2023-12-14T03:19:38;11.18;;;8.07;;
2213;SDS011;1113;42.018;23.986;2023-12-14T03:22:06;10.98;;;7.65;;
2213;SDS011;1113;42.018;23.986;2023-12-14T03:24:34;13.93;;;9.30;;
2213;SDS011;1113;42.018;23.986;2023-12-14T03:27:03;16.92;;;11.75;;
2213;SDS011;1113;42.018;23.986;2023-12-14T03:29:32;15.13;;;8.27;;
2213;SDS011;1113;42.018;23.986;2023-12-14T03:32:00;12.98;;;7.82;;
2213;SDS011;1113;42.018;23.986;2023-12-14T03:34:27;10.35;;;7.35;;
2213;SDS011;1113;42.018;23.986;2023-12-14T03:36:54;14.63;;;8.82;;
2213;SDS011;1113;42.018;23.986;2023-12-14T03:39:22;19.42;;;13.93;;
2213;SDS011;1113;42.018;23.986;2023-12-14T03:41:49;16.20;;;11.57;;
2213;SDS011;1113;42.018;23.986;2023-12-14T03:44:16;15.82;;;11.60;;
2213;SDS011;1113;42.018;23.986;2023-12-14T03:46:45;13.35;;;10.40;;
2213;SDS011;1113;42.018;23.986;2023-12-14T03:49:12;16.88;;;11.75;;
2213;SDS011;1113;42.018;23.986;2023-12-14T03:51:39;15.20;;;11.15;;
2213;SDS011;1113;42.018;23.986;2023-12-14T03:54:07;15.65;;;11.18;;
2213;SDS011;1113;42.018;23.986;2023-12-14T03:56:34;18.27;;;13.25;;
2213;SDS011;1113;42.018;23.986;2023-12-14T03:59:01;18.20;;;14.80;;
2213;SDS011;1113;42.018;23.986;2023-12-14T04:01:28;17.60;;;13.32;;
2213;SDS011;1113;42.018;23.986;2023-12-14T04:03:57;13.77;;;9.60;;
2213;SDS011;1113;42.018;23.986;2023-12-14T04:06:24;23.92;;;18.90;;
2213;SDS011;1113;42.018;23.986;2023-12-14T04:08:52;15.52;;;12.68;;
2213;SDS011;1113;42.018;23.986;2023-12-14T04:11:19;12.55;;;9.20;;
2213;SDS011;1113;42.018;23.986;2023-12-14T04:13:47;13.57;;;10.98;;
2213;SDS011;1113;42.018;23.986;2023-12-14T04:16:15;17.65;;;13.18;;
2213;SDS011;1113;42.018;23.986;2023-12-14T04:18:46;13.20;;;11.65;;
2213;SDS011;1113;42.018;23.986;2023-12-14T04:21:15;11.32;;;9.07;;
2213;SDS011;1113;42.018;23.986;2023-12-14T04:23:42;15.10;;;10.48;;
2213;SDS011;1113;42.018;23.986;2023-12-14T04:26:11;13.68;;;10.10;;
2213;SDS011;1113;42.018;23.986;2023-12-14T04:28:39;16.05;;;10.80;;
2213;SDS011;1113;42.018;23.986;2023-12-14T04:31:09;11.25;;;8.63;;
2213;SDS011;1113;42.018;23.986;2023-12-14T04:33:37;16.40;;;11.75;;
2213;SDS011;1113;42.018;23.986;2023-12-14T04:36:05;21.75;;;13.95;;
2213;SDS011;1113;42.018;23.986;2023-12-14T04:38:34;22.55;;;13.10;;
2213;SDS011;1113;42.018;23.986;2023-12-14T04:41:02;18.77;;;13.65;;
2213;SDS011;1113;42.018;23.986;2023-12-14T04:43:29;33.38;;;24.48;;
2213;SDS011;1113;42.018;23.986;2023-12-14T04:45:57;30.67;;;22.45;;
2213;SDS011;1113;42.018;23.986;2023-12-14T04:48:24;37.85;;;25.10;;
2213;SDS011;1113;42.018;23.986;2023-12-14T04:50:51;40.58;;;28.25;;
2213;SDS011;1113;42.018;23.986;2023-12-14T04:53:19;34.58;;;24.45;;
2213;SDS011;1113;42.018;23.986;2023-12-14T04:55:48;35.20;;;23.92;;
2213;SDS011;1113;42.018;23.986;2023-12-14T04:58:15;32.08;;;22.85;;
2213;SDS011;1113;42.018;23.986;2023-12-14T05:00:42;46.55;;;31.27;;
2213;SDS011;1113;42.018;23.986;2023-12-14T05:03:09;25.35;;;17.73;;
2213;SDS011;1113;42.018;23.986;2023-12-14T05:05:37;34.03;;;25.13;;
2213;SDS011;1113;42.018;23.986;2023-12-14T05:08:04;90.20;;;59.72;;
2213;SDS011;1113;42.018;23.986;2023-12-14T05:10:31;41.88;;;28.73;;
2213;SDS011;1113;42.018;23.986;2023-12-14T05:13:00;28.33;;;16.67;;
2213;SDS011;1113;42.018;23.986;2023-12-14T05:15:28;26.58;;;18.40;;
2213;SDS011;1113;42.018;23.986;2023-12-14T05:17:55;26.48;;;21.80;;
2213;SDS011;1113;42.018;23.986;2023-12-14T05:20:23;52.70;;;37.65;;
2213;SDS011;1113;42.018;23.986;2023-12-14T05:22:50;43.80;;;31.58;;
2213;SDS011;1113;42.018;23.986;2023-12-14T05:25:17;26.75;;;20.55;;
2213;SDS011;1113;42.018;23.986;2023-12-14T05:27:45;30.42;;;22.38;;
2213;SDS011;1113;42.018;23.986;2023-12-14T05:30:14;33.53;;;21.42;;
2213;SDS011;1113;42.018;23.986;2023-12-14T05:32:41;28.48;;;19.80;;
2213;SDS011;1113;42.018;23.986;2023-12-14T05:35:08;34.17;;;21.08;;
2213;SDS011;1113;42.018;23.986;2023-12-14T05:37:38;27.17;;;18.83;;
2213;SDS011;1113;42.018;23.986;2023-12-14T05:40:06;27.98;;;18.92;;
2213;SDS011;1113;42.018;23.986;2023-12-14T05:42:34;22.88;;;17.27;;
2213;SDS011;1113;42.018;23.986;2023-12-14T05:45:03;30.77;;;20.83;;
2213;SDS011;1113;42.018;23.986;2023-12-14T05:47:32;28.77;;;20.83;;
2213;SDS011;1113;42.018;23.986;2023-12-14T05:50:00;38.85;;;25.02;;
2213;SDS011;1113;42.018;23.986;2023-12-14T05:52:28;38.20;;;26.40;;
2213;SDS011;1113;42.018;23.986;2023-12-14T05:54:55;36.85;;;27.05;;
2213;SDS011;1113;42.018;23.986;2023-12-14T05:57:23;38.92;;;29.50;;
2213;SDS011;1113;42.018;23.986;2023-12-14T05:59:51;34.17;;;26.70;;
2213;SDS011;1113;42.018;23.986;2023-12-14T06:02:18;26.40;;;19.20;;
2213;SDS011;1113;42.018;23.986;2023-12-14T06:04:47;30.30;;;21.90;;
2213;SDS011;1113;42.018;23.986;2023-12-14T06:07:14;43.60;;;32.28;;
2213;SDS011;1113;42.018;23.986;2023-12-14T06:09:42;34.95;;;22.85;;
2213;SDS011;1113;42.018;23.986;2023-12-14T06:12:09;28.90;;;21.33;;
2213;SDS011;1113;42.018;23.986;2023-12-14T06:14:37;31.83;;;24.95;;
2213;SDS011;1113;42.018;23.986;2023-12-14T06:17:04;38.60;;;26.73;;
2213;SDS011;1113;42.018;23.986;2023-12-14T06:19:32;39.70;;;27.33;;
2213;SDS011;1113;42.018;23.986;2023-12-14T06:22:00;34.28;;;25.88;;
2213;SDS011;1113;42.018;23.986;2023-12-14T06:24:28;43.90;;;29.42;;
2213;SDS011;1113;42.018;23.986;2023-12-14T06:26:55;38.03;;;24.98;;
2213;SDS011;1113;42.018;23.986;2023-12-14T06:29:22;46.58;;;30.23;;
2213;SDS011;1113;42.018;23.986;2023-12-14T06:31:50;32.28;;;22.25;;
2213;SDS011;1113;42.018;23.986;2023-12-14T06:34:17;38.72;;;26.52;;
2213;SDS011;1113;42.018;23.986;2023-12-14T06:36:45;41.22;;;26.20;;
2213;SDS011;1113;42.018;23.986;2023-12-14T06:39:14;42.30;;;28.17;;
2213;SDS011;1113;42.018;23.986;2023-12-14T06:41:42;48.80;;;33.10;;
2213;SDS011;1113;42.018;23.986;2023-12-14T06:44:10;68.40;;;49.03;;
2213;SDS011;1113;42.018;23.986;2023-12-14T06:46:37;57.55;;;42.38;;
2213;SDS011;1113;42.018;23.986;2023-12-14T06:49:05;62.90;;;44.90;;
2213;SDS011;1113;42.018;23.986;2023-12-14T06:51:32;63.40;;;45.43;;
2213;SDS011;1113;42.018;23.986;2023-12-14T06:53:59;61.97;;;42.13;;
2213;SDS011;1113;42.018;23.986;2023-12-14T06:56:29;61.40;;;41.10;;
2213;SDS011;1113;42.018;23.986;2023-12-14T06:58:56;56.30;;;42.87;;
2213;SDS011;1113;42.018;23.986;2023-12-14T07:01:24;54.97;;;40.67;;
2213;SDS011;1113;42.018;23.986;2023-12-14T07:03:51;54.97;;;41.90;;
2213;SDS011;1113;42.018;23.986;2023-12-14T07:06:20;59.67;;;40.50;;
2213;SDS011;1113;42.018;23.986;2023-12-14T07:08:47;51.93;;;40.30;;
2213;SDS011;1113;42.018;23.986;2023-12-14T07:11:15;48.70;;;38.33;;
2213;SDS011;1113;42.018;23.986;2023-12-14T07:13:44;54.93;;;40.83;;
2213;SDS011;1113;42.018;23.986;2023-12-14T07:16:12;69.90;;;49.97;;
2213;SDS011;1113;42.018;23.986;2023-12-14T07:18:41;68.67;;;50.17;;
2213;SDS011;1113;42.018;23.986;2023-12-14T07:21:09;75.73;;;52.03;;
2213;SDS011;1113;42.018;23.986;2023-12-14T07:23:37;79.27;;;56.37;;
2213;SDS011;1113;42.018;23.986;2023-12-14T07:26:04;71.67;;;52.10;;
2213;SDS011;1113;42.018;23.986;2023-12-14T07:28:35;85.13;;;54.83;;
2213;SDS011;1113;42.018;23.986;2023-12-14T07:31:11;72.73;;;53.63;;
2213;SDS011;1113;42.018;23.986;2023-12-14T07:33:38;92.33;;;57.70;;
2213;SDS011;1113;42.018;23.986;2023-12-14T07:36:06;126.20;;;83.57;;
2213;SDS011;1113;42.018;23.986;2023-12-14T07:38:34;161.77;;;102.27;;
2213;SDS011;1113;42.018;23.986;2023-12-14T07:41:02;222.80;;;137.50;;
2213;SDS011;1113;42.018;23.986;2023-12-14T07:43:29;253.53;;;164.93;;
2213;SDS011;1113;42.018;23.986;2023-12-14T07:45:57;219.40;;;141.57;;
2213;SDS011;1113;42.018;23.986;2023-12-14T07:48:26;247.47;;;160.47;;
2213;SDS011;1113;42.018;23.986;2023-12-14T07:50:54;171.27;;;123.93;;
2213;SDS011;1113;42.018;23.986;2023-12-14T07:53:21;146.60;;;106.40;;
2213;SDS011;1113;42.018;23.986;2023-12-14T07:55:49;96.87;;;68.53;;
2213;SDS011;1113;42.018;23.986;2023-12-14T07:58:17;101.37;;;69.03;;
2213;SDS011;1113;42.018;23.986;2023-12-14T08:00:44;85.03;;;59.30;;
2213;SDS011;1113;42.018;23.986;2023-12-14T08:03:12;72.53;;;52.00;;
2213;SDS011;1113;42.018;23.986;2023-12-14T08:05:41;66.90;;;47.80;;
2213;SDS011;1113;42.018;23.986;2023-12-14T08:08:08;68.47;;;48.53;;
2213;SDS011;1113;42.018;23.986;2023-12-14T08:10:36;71.60;;;48.50;;
2213;SDS011;1113;42.018;23.986;2023-12-14T08:13:03;52.10;;;40.20;;
2213;SDS011;1113;42.018;23.986;2023-12-14T08:15:31;52.20;;;40.23;;
2213;SDS011;1113;42.018;23.986;2023-12-14T08:17:58;43.70;;;35.73;;
2213;SDS011;1113;42.018;23.986;2023-12-14T08:20:25;39.83;;;31.20;;
2213;SDS011;1113;42.018;23.986;2023-12-14T08:22:54;52.40;;;42.03;;
2213;SDS011;1113;42.018;23.986;2023-12-14T08:25:21;52.17;;;43.73;;
2213;SDS011;1113;42.018;23.986;2023-12-14T08:27:48;50.20;;;38.90;;
2213;SDS011;1113;42.018;23.986;2023-12-14T08:30:16;55.77;;;40.70;;
2213;SDS011;1113;42.018;23.986;2023-12-14T08:32:44;44.70;;;37.53;;
2213;SDS011;1113;42.018;23.986;2023-12-14T08:35:11;51.70;;;38.47;;
2213;SDS011;1113;42.018;23.986;2023-12-14T08:37:38;53.67;;;41.80;;
2213;SDS011;1113;42.018;23.986;2023-12-14T08:40:08;65.63;;;51.23;;
2213;SDS011;1113;42.018;23.986;2023-12-14T08:42:36;66.30;;;52.83;;
2213;SDS011;1113;42.018;23.986;2023-12-14T08:45:04;66.67;;;54.57;;
2213;SDS011;1113;42.018;23.986;2023-12-14T08:47:34;70.00;;;57.00;;
2213;SDS011;1113;42.018;23.986;2023-12-14T08:50:02;75.33;;;60.27;;
2213;SDS011;1113;42.018;23.986;2023-12-14T08:52:29;73.00;;;57.47;;
2213;SDS011;1113;42.018;23.986;2023-12-14T08:54:57;73.07;;;53.83;;
2213;SDS011;1113;42.018;23.986;2023-12-14T08:57:26;71.83;;;57.97;;
2213;SDS011;1113;42.018;23.986;2023-12-14T08:59:54;65.43;;;52.03;;
2213;SDS011;1113;42.018;23.986;2023-12-14T09:02:21;54.70;;;46.10;;
2213;SDS011;1113;42.018;23.986;2023-12-14T09:04:49;55.90;;;44.70;;
2213;SDS011;1113;42.018;23.986;2023-12-14T09:07:17;78.23;;;53.50;;
2213;SDS011;1113;42.018;23.986;2023-12-14T09:09:44;62.40;;;49.77;;
2213;SDS011;1113;42.018;23.986;2023-12-14T09:12:12;60.00;;;48.30;;
2213;SDS011;1113;42.018;23.986;2023-12-14T09:14:40;70.20;;;51.57;;
2213;SDS011;1113;42.018;23.986;2023-12-14T09:17:08;93.80;;;71.07;;
2213;SDS011;1113;42.018;23.986;2023-12-14T09:19:35;95.83;;;71.50;;
2213;SDS011;1113;42.018;23.986;2023-12-14T09:22:03;84.17;;;61.63;;
2213;SDS011;1113;42.018;23.986;2023-12-14T09:24:30;91.13;;;63.37;;
2213;SDS011;1113;42.018;23.986;2023-12-14T09:26:58;75.03;;;59.47;;
2213;SDS011;1113;42.018;23.986;2023-12-14T09:29:26;77.77;;;59.07;;
2213;SDS011;1113;42.018;23.986;2023-12-14T09:31:54;75.50;;;56.93;;
2213;SDS011;1113;42.018;23.986;2023-12-14T09:34:21;63.37;;;50.63;;
2213;SDS011;1113;42.018;23.986;2023-12-14T09:36:49;58.10;;;46.77;;
2213;SDS011;1113;42.018;23.986;2023-12-14T09:39:17;41.60;;;31.03;;
2213;SDS011;1113;42.018;23.986;2023-12-14T09:41:46;31.43;;;24.50;;
2213;SDS011;1113;42.018;23.986;2023-12-14T09:44:14;36.53;;;29.47;;
2213;SDS011;1113;42.018;23.986;2023-12-14T09:46:41;36.60;;;29.40;;
2213;SDS011;1113;42.018;23.986;2023-12-14T09:49:15;41.20;;;31.47;;
2213;SDS011;1113;42.018;23.986;2023-12-14T09:51:43;40.90;;;31.70;;
2213;SDS011;1113;42.018;23.986;2023-12-14T09:54:12;38.53;;;29.07;;
2213;SDS011;1113;42.018;23.986;2023-12-14T09:56:45;42.80;;;27.70;;
2213;SDS011;1113;42.018;23.986;2023-12-14T09:59:13;33.80;;;26.90;;
2213;SDS011;1113;42.018;23.986;2023-12-14T10:01:40;40.27;;;31.27;;
2213;SDS011;1113;42.018;23.986;2023-12-14T10:04:08;36.37;;;26.90;;
2213;SDS011;1113;42.018;23.986;2023-12-14T10:06:38;29.13;;;24.40;;
2213;SDS011;1113;42.018;23.986;2023-12-14T10:09:07;22.07;;;17.87;;
2213;SDS011;1113;42.018;23.986;2023-12-14T10:11:38;17.60;;;14.30;;
2213;SDS011;1113;42.018;23.986;2023-12-14T10:14:17;25.90;;;15.87;;
2213;SDS011;1113;42.018;23.986;2023-12-14T10:16:46;17.67;;;13.97;;
2213;SDS011;1113;42.018;23.986;2023-12-14T10:19:16;11.63;;;7.23;;
2213;SDS011;1113;42.018;23.986;2023-12-14T10:21:45;11.00;;;6.37;;
2213;SDS011;1113;42.018;23.986;2023-12-14T10:24:13;7.13;;;4.97;;
2213;SDS011;1113;42.018;23.986;2023-12-14T10:26:41;11.23;;;6.20;;
2213;SDS011;1113;42.018;23.986;2023-12-14T10:29:08;9.23;;;6.00;;
2213;SDS011;1113;42.018;23.986;2023-12-14T10:31:36;8.63;;;5.43;;
2213;SDS011;1113;42.018;23.986;2023-12-14T10:34:04;3.87;;;2.33;;
2213;SDS011;1113;42.018;23.986;2023-12-14T10:36:32;3.60;;;2.20;;
2213;SDS011;1113;42.018;23.986;2023-12-14T10:39:01;5.07;;;2.03;;
2213;SDS011;1113;42.018;23.986;2023-12-14T10:41:30;3.33;;;2.40;;
2213;SDS011;1113;42.018;23.986;2023-12-14T10:43:59;3.53;;;2.40;;
2213;SDS011;1113;42.018;23.986;2023-12-14T10:46:28;5.03;;;2.13;;
2213;SDS011;1113;42.018;23.986;2023-12-14T10:48:55;5.13;;;2.77;;
2213;SDS011;1113;42.018;23.986;2023-12-14T10:51:23;5.50;;;2.63;;
2213;SDS011;1113;42.018;23.986;2023-12-14T10:53:52;4.07;;;1.90;;
2213;SDS011;1113;42.018;23.986;2023-12-14T10:56:24;5.80;;;2.00;;
2213;SDS011;1113;42.018;23.986;2023-12-14T10:58:52;4.70;;;2.00;;
2213;SDS011;1113;42.018;23.986;2023-12-14T11:01:22;2.80;;;1.73;;
2213;SDS011;1113;42.018;23.986;2023-12-14T11:03:50;3.00;;;2.00;;
2213;SDS011;1113;42.018;23.986;2023-12-14T11:06:26;2.97;;;1.57;;
2213;SDS011;1113;42.018;23.986;2023-12-14T11:08:56;3.60;;;1.60;;
2213;SDS011;1113;42.018;23.986;2023-12-14T11:11:30;3.00;;;1.53;;
2213;SDS011;1113;42.018;23.986;2023-12-14T11:14:04;3.80;;;2.60;;
2213;SDS011;1113;42.018;23.986;2023-12-14T11:16:35;4.30;;;3.17;;
2213;SDS011;1113;42.018;23.986;2023-12-14T11:22:11;4.20;;;3.17;;
2213;SDS011;1113;42.018;23.986;2023-12-14T11:24:50;5.03;;;2.77;;
2213;SDS011;1113;42.018;23.986;2023-12-14T11:27:22;4.90;;;2.97;;
2213;SDS011;1113;42.018;23.986;2023-12-14T11:29:54;5.20;;;2.70;;
2213;SDS011;1113;42.018;23.986;2023-12-14T11:32:21;5.93;;;3.50;;
2213;SDS011;1113;42.018;23.986;2023-12-14T11:34:50;4.67;;;2.67;;
2213;SDS011;1113;42.018;23.986;2023-12-14T11:37:17;4.57;;;3.23;;
2213;SDS011;1113;42.018;23.986;2023-12-14T11:39:45;7.80;;;3.20;;
2213;SDS011;1113;42.018;23.986;2023-12-14T11:42:17;4.90;;;3.40;;
2213;SDS011;1113;42.018;23.986;2023-12-14T11:44:46;4.53;;;2.97;;
2213;SDS011;1113;42.018;23.986;2023-12-14T11:47:15;4.00;;;3.20;;
2213;SDS011;1113;42.018;23.986;2023-12-14T11:49:42;6.43;;;3.47;;
2213;SDS011;1113;42.018;23.986;2023-12-14T11:52:09;4.80;;;2.70;;
2213;SDS011;1113;42.018;23.986;2023-12-14T11:54:37;4.93;;;2.80;;
2213;SDS011;1113;42.018;23.986;2023-12-14T11:57:04;3.90;;;2.53;;
2213;SDS011;1113;42.018;23.986;2023-12-14T11:59:34;5.93;;;3.17;;
2213;SDS011;1113;42.018;23.986;2023-12-14T12:02:04;5.47;;;3.80;;
2213;SDS011;1113;42.018;23.986;2023-12-14T12:04:32;4.00;;;2.43;;
2213;SDS011;1113;42.018;23.986;2023-12-14T12:07:02;4.87;;;2.87;;
2213;SDS011;1113;42.018;23.986;2023-12-14T12:09:35;3.90;;;3.10;;
2213;SDS011;1113;42.018;23.986;2023-12-14T12:12:06;5.03;;;2.90;;
2213;SDS011;1113;42.018;23.986;2023-12-14T12:14:34;4.40;;;2.53;;
2213;SDS011;1113;42.018;23.986;2023-12-14T12:17:02;5.53;;;3.50;;
2213;SDS011;1113;42.018;23.986;2023-12-14T12:19:32;6.97;;;3.37;;
2213;SDS011;1113;42.018;23.986;2023-12-14T12:22:02;4.77;;;3.20;;
2213;SDS011;1113;42.018;23.986;2023-12-14T12:24:30;4.13;;;2.80;;
2213;SDS011;1113;42.018;23.986;2023-12-14T12:26:57;4.70;;;3.17;;
2213;SDS011;1113;42.018;23.986;2023-12-14T12:29:24;5.47;;;2.87;;
2213;SDS011;1113;42.018;23.986;2023-12-14T12:31:51;8.27;;;4.50;;
2213;SDS011;1113;42.018;23.986;2023-12-14T12:34:18;3.77;;;2.37;;
2213;SDS011;1113;42.018;23.986;2023-12-14T12:36:50;3.80;;;2.60;;
2213;SDS011;1113;42.018;23.986;2023-12-14T12:39:17;3.73;;;2.57;;
2213;SDS011;1113;42.018;23.986;2023-12-14T12:41:44;4.17;;;3.00;;
2213;SDS011;1113;42.018;23.986;2023-12-14T12:44:11;4.90;;;2.60;;
2213;SDS011;1113;42.018;23.986;2023-12-14T12:46:38;5.00;;;3.00;;
2213;SDS011;1113;42.018;23.986;2023-12-14T12:49:06;6.50;;;2.93;;
2213;SDS011;1113;42.018;23.986;2023-12-14T12:51:33;4.90;;;2.90;;
2213;SDS011;1113;42.018;23.986;2023-12-14T12:54:01;4.40;;;2.63;;
2213;SDS011;1113;42.018;23.986;2023-12-14T12:56:29;4.37;;;2.57;;
2213;SDS011;1113;42.018;23.986;2023-12-14T12:58:57;3.70;;;2.67;;
2213;SDS011;1113;42.018;23.986;2023-12-14T13:01:24;4.57;;;3.10;;
2213;SDS011;1113;42.018;23.986;2023-12-14T13:03:54;3.83;;;2.50;;
2213;SDS011;1113;42.018;23.986;2023-12-14T13:06:23;4.93;;;3.03;;
2213;SDS011;1113;42.018;23.986;2023-12-14T13:08:51;4.60;;;2.23;;
2213;SDS011;1113;42.018;23.986;2023-12-14T13:11:20;4.20;;;2.10;;
2213;SDS011;1113;42.018;23.986;2023-12-14T13:13:47;4.33;;;2.43;;
2213;SDS011;1113;42.018;23.986;2023-12-14T13:16:15;4.53;;;2.77;;
2213;SDS011;1113;42.018;23.986;2023-12-14T13:18:42;5.57;;;2.60;;
2213;SDS011;1113;42.018;23.986;2023-12-14T13:21:11;3.43;;;2.30;;
2213;SDS011;1113;42.018;23.986;2023-12-14T13:23:38;3.93;;;2.40;;
2213;SDS011;1113;42.018;23.986;2023-12-14T13:26:06;5.47;;;2.90;;
2213;SDS011;1113;42.018;23.986;2023-12-14T13:28:35;4.97;;;2.57;;
2213;SDS011;1113;42.018;23.986;2023-12-14T13:31:02;3.37;;;2.27;;
2213;SDS011;1113;42.018;23.986;2023-12-14T13:33:31;4.10;;;2.80;;
2213;SDS011;1113;42.018;23.986;2023-12-14T13:35:58;6.00;;;2.27;;
2213;SDS011;1113;42.018;23.986;2023-12-14T13:38:25;3.47;;;2.30;;
2213;SDS011;1113;42.018;23.986;2023-12-14T13:40:52;6.53;;;2.23;;
2213;SDS011;1113;42.018;23.986;2023-12-14T13:43:20;4.03;;;2.27;;
2213;SDS011;1113;42.018;23.986;2023-12-14T13:45:48;3.60;;;2.60;;
2213;SDS011;1113;42.018;23.986;2023-12-14T13:48:17;5.17;;;2.30;;
2213;SDS011;1113;42.018;23.986;2023-12-14T13:50:44;5.50;;;2.67;;
2213;SDS011;1113;42.018;23.986;2023-12-14T13:53:12;3.80;;;2.40;;
2213;SDS011;1113;42.018;23.986;2023-12-14T13:55:39;5.43;;;2.83;;
2213;SDS011;1113;42.018;23.986;2023-12-14T13:58:06;3.80;;;2.30;;
2213;SDS011;1113;42.018;23.986;2023-12-14T14:00:33;3.83;;;2.47;;
2213;SDS011;1113;42.018;23.986;2023-12-14T14:03:03;2.97;;;2.17;;
2213;SDS011;1113;42.018;23.986;2023-12-14T14:05:30;3.97;;;2.50;;
2213;SDS011;1113;42.018;23.986;2023-12-14T14:07:58;5.47;;;2.67;;
2213;SDS011;1113;42.018;23.986;2023-12-14T14:10:25;6.60;;;2.13;;
2213;SDS011;1113;42.018;23.986;2023-12-14T14:12:52;3.60;;;2.37;;
2213;SDS011;1113;42.018;23.986;2023-12-14T14:15:19;4.70;;;2.53;;
2213;SDS011;1113;42.018;23.986;2023-12-14T14:17:47;3.30;;;2.13;;
2213;SDS011;1113;42.018;23.986;2023-12-14T14:20:18;3.43;;;1.97;;
2213;SDS011;1113;42.018;23.986;2023-12-14T14:22:46;5.10;;;2.13;;
2213;SDS011;1113;42.018;23.986;2023-12-14T14:25:13;6.10;;;2.53;;
2213;SDS011;1113;42.018;23.986;2023-12-14T14:27:40;4.77;;;2.50;;
2213;SDS011;1113;42.018;23.986;2023-12-14T14:30:08;3.30;;;2.17;;
2213;SDS011;1113;42.018;23.986;2023-12-14T14:32:36;7.10;;;2.33;;
2213;SDS011;1113;42.018;23.986;2023-12-14T14:35:04;5.37;;;2.43;;
2213;SDS011;1113;42.018;23.986;2023-12-14T14:37:33;5.63;;;2.20;;
2213;SDS011;1113;42.018;23.986;2023-12-14T14:40:02;7.43;;;2.30;;
2213;SDS011;1113;42.018;23.986;2023-12-14T14:42:30;4.20;;;2.63;;
2213;SDS011;1113;42.018;23.986;2023-12-14T14:44:57;5.30;;;2.70;;
2213;SDS011;1113;42.018;23.986;2023-12-14T14:47:24;4.40;;;2.33;;
2213;SDS011;1113;42.018;23.986;2023-12-14T14:49:53;4.37;;;2.53;;
2213;SDS011;1113;42.018;23.986;2023-12-14T14:52:28;4.80;;;2.43;;